Time;durP1;ratioP1;P1;durP2;ratioP2;P2;SDS_P1;SDS_P2;PMS_P1;PMS_P2;Temp;Humidity;BMP_temperature;BMP_pressure;BME280_temperature;BME280_humidity;BME280_pressure;Samples;Min_cycle;Max_cycle;Signal;HPM_P1;HPM_P2
2020/12/05 00:01:56;;;;;;;22.13;10.68;;;;;;;1.65;76.44;99146.94;4942038;28;20020;-80
2020/12/05 00:04:23;;;;;;;21.52;10.43;;;;;;;1.71;76.49;99146.72;4942199;29;20032;-80
2020/12/05 00:06:49;;;;;;;19.77;9.50;;;;;;;1.75;76.42;99143.09;4939129;29;20044;-80
2020/12/05 00:09:16;;;;;;;23.17;10.23;;;;;;;1.85;76.96;99153.22;4923477;29;20020;-80
2020/12/05 00:11:43;;;;;;;22.60;10.73;;;;;;;1.96;77.25;99156.28;4906809;29;20095;-80
2020/12/05 00:14:09;;;;;;;20.45;10.40;;;;;;;2.08;77.26;99161.03;4939589;29;20036;-80
2020/12/05 00:16:36;;;;;;;23.45;10.52;;;;;;;2.19;77.27;99172.84;4941780;29;20032;-80
2020/12/05 00:19:03;;;;;;;23.02;10.77;;;;;;;2.30;77.43;99175.91;4957496;28;20051;-80
2020/12/05 00:21:29;;;;;;;23.83;11.45;;;;;;;2.36;77.17;99162.59;4942306;29;20059;-80
2020/12/05 00:23:56;;;;;;;20.48;10.18;;;;;;;2.43;76.77;99169.28;4941973;29;20044;-80
2020/12/05 00:26:24;;;;;;;19.48;10.25;;;;;;;2.48;76.96;99175.16;4940649;29;20024;-80
2020/12/05 00:28:50;;;;;;;20.80;10.27;;;;;;;2.55;77.32;99185.41;4938395;29;20048;-80
2020/12/05 00:31:20;;;;;;;21.92;9.73;;;;;;;2.63;76.99;99188.56;4940746;29;20055;-80
2020/12/05 00:33:50;;;;;;;17.88;9.20;;;;;;;2.68;76.86;99186.63;4942019;29;20041;-80
2020/12/05 00:36:17;;;;;;;19.73;10.00;;;;;;;2.71;76.16;99196.94;4941898;29;20024;-80
2020/12/05 00:38:45;;;;;;;21.35;9.70;;;;;;;2.71;76.27;99207.41;4947333;23;20492;-77
2020/12/05 00:41:12;;;;;;;20.50;9.98;;;;;;;2.70;76.34;99203.94;4905732;29;20508;-78
2020/12/05 00:43:38;;;;;;;20.60;9.95;;;;;;;2.68;76.21;99208.38;4909772;29;20052;-78
2020/12/05 00:46:04;;;;;;;20.00;9.25;;;;;;;2.63;75.71;99206.84;4898370;29;20147;-77
2020/12/05 00:48:31;;;;;;;22.10;9.98;;;;;;;2.53;75.03;99215.03;4906217;29;20075;-77
2020/12/05 00:50:58;;;;;;;27.65;10.00;;;;;;;2.43;75.20;99203.25;4894110;29;20088;-77
2020/12/05 00:53:25;;;;;;;20.88;9.25;;;;;;;2.33;74.70;99201.88;4895754;29;20064;-78
2020/12/05 00:55:51;;;;;;;19.42;9.70;;;;;;;2.23;75.05;99195.31;4880385;29;20446;-77
2020/12/05 00:58:17;;;;;;;21.02;9.43;;;;;;;2.13;74.56;99190.44;4895820;29;20100;-78
2020/12/05 01:00:43;;;;;;;21.65;9.13;;;;;;;2.07;75.07;99188.06;4897559;29;20050;-78
2020/12/05 01:03:09;;;;;;;16.20;9.23;;;;;;;2.00;75.21;99189.19;4895252;29;20528;-77
2020/12/05 01:05:36;;;;;;;23.48;10.30;;;;;;;1.95;74.94;99196.31;4897015;29;20045;-78
2020/12/05 01:08:06;;;;;;;19.83;9.38;;;;;;;1.84;74.49;99188.03;4895804;29;20497;-78
2020/12/05 01:10:33;;;;;;;22.25;9.80;;;;;;;1.75;74.49;99195.31;4896583;29;20044;-77
2020/12/05 01:13:02;;;;;;;23.77;9.68;;;;;;;1.68;74.64;99193.81;4880281;29;20191;-78
2020/12/05 01:15:29;;;;;;;21.23;9.45;;;;;;;1.64;74.90;99187.00;4883610;29;20045;-77
2020/12/05 01:17:55;;;;;;;22.35;9.65;;;;;;;1.56;74.73;99183.78;4895243;29;20052;-78
2020/12/05 01:20:21;;;;;;;25.98;9.85;;;;;;;1.48;74.39;99185.81;4887086;29;20052;-78
2020/12/05 01:22:47;;;;;;;25.70;9.65;;;;;;;1.40;74.83;99190.47;4895385;29;20108;-80
2020/12/05 01:25:13;;;;;;;20.58;9.15;;;;;;;1.33;74.70;99188.03;4916003;29;20052;-79
2020/12/05 01:27:39;;;;;;;19.70;9.25;;;;;;;1.30;74.88;99198.59;4898776;29;20088;-78
2020/12/05 01:30:05;;;;;;;23.33;9.77;;;;;;;1.27;74.73;99196.06;4894059;29;20131;-79
2020/12/05 01:32:32;;;;;;;29.30;9.77;;;;;;;1.23;74.99;99202.31;4896240;29;20041;-79
2020/12/05 01:34:58;;;;;;;21.55;9.52;;;;;;;1.20;74.63;99207.63;4889865;29;20127;-79
2020/12/05 01:37:24;;;;;;;25.58;10.05;;;;;;;1.14;74.46;99213.03;4901073;29;20068;-78
2020/12/05 01:39:50;;;;;;;26.13;10.50;;;;;;;1.07;74.70;99211.53;4889430;29;20044;-78
2020/12/05 01:42:17;;;;;;;24.75;10.15;;;;;;;1.03;74.85;99221.19;4898018;29;20144;-78
2020/12/05 01:44:43;;;;;;;24.65;9.32;;;;;;;1.00;75.01;99216.09;4901637;29;20056;-79
2020/12/05 01:47:10;;;;;;;24.95;10.38;;;;;;;1.00;75.26;99215.22;4901626;29;20040;-79
2020/12/05 01:49:36;;;;;;;27.25;9.65;;;;;;;1.01;75.35;99227.38;4885236;29;20113;-79
2020/12/05 01:52:02;;;;;;;20.95;9.27;;;;;;;1.02;75.29;99221.25;4900701;29;20055;-79
2020/12/05 01:54:29;;;;;;;23.80;10.38;;;;;;;1.05;75.43;99218.56;4884873;29;20049;-80
2020/12/05 01:56:59;;;;;;;26.00;9.75;;;;;;;1.05;75.05;99223.75;4899694;29;20139;-79
2020/12/05 01:59:25;;;;;;;22.40;9.63;;;;;;;1.03;74.76;99226.41;4901439;29;20036;-80
2020/12/05 02:01:57;;;;;;;27.05;10.65;;;;;;;0.98;74.74;99228.34;4899853;29;20057;-79
2020/12/05 02:04:28;;;;;;;24.65;10.57;;;;;;;0.95;75.04;99228.41;4900819;29;20045;-80
2020/12/05 02:07:10;;;;;;;27.52;10.63;;;;;;;0.95;75.29;99226.66;4901629;29;20055;-80
2020/12/05 02:09:49;;;;;;;21.55;9.95;;;;;;;0.95;75.59;99223.22;4889252;29;20565;-79
2020/12/05 02:12:38;;;;;;;23.80;10.18;;;;;;;0.97;75.72;99232.69;4905739;29;20090;-80
2020/12/05 02:15:11;;;;;;;27.35;10.63;;;;;;;1.05;76.18;99239.41;4890233;29;20500;-80
2020/12/05 02:17:43;;;;;;;29.30;11.75;;;;;;;1.15;76.33;99243.44;4882734;29;20052;-79
2020/12/05 02:20:12;;;;;;;33.25;11.13;;;;;;;1.23;75.93;99233.59;4898830;29;20505;-79
2020/12/05 02:22:42;;;;;;;25.17;10.77;;;;;;;1.30;75.74;99245.53;4900604;29;20408;-79
2020/12/05 02:25:10;;;;;;;29.08;11.77;;;;;;;1.36;75.73;99250.53;4884761;29;20052;-79
2020/12/05 02:27:36;;;;;;;35.80;11.65;;;;;;;1.42;76.01;99252.09;4900507;29;20055;-80
2020/12/05 02:30:04;;;;;;;25.05;10.45;;;;;;;1.49;76.10;99250.16;4884079;29;20052;-80
2020/12/05 02:32:31;;;;;;;27.25;12.68;;;;;;;1.57;76.31;99245.50;4882489;29;20061;-79
2020/12/05 02:34:57;;;;;;;31.13;11.38;;;;;;;1.62;76.25;99241.00;4899971;29;20127;-79
2020/12/05 02:37:26;;;;;;;31.88;12.45;;;;;;;1.66;76.19;99247.81;4903188;29;20044;-79
2020/12/05 02:39:54;;;;;;;34.40;11.55;;;;;;;1.71;76.15;99240.69;4900153;29;20049;-79
2020/12/05 02:42:20;;;;;;;34.53;12.55;;;;;;;1.73;76.00;99238.00;4899722;29;20109;-79
2020/12/05 02:44:52;;;;;;;32.55;12.55;;;;;;;1.75;76.05;99237.06;4897083;29;20041;-79
2020/12/05 02:47:19;;;;;;;34.38;12.80;;;;;;;1.78;75.91;99230.03;4890525;29;20049;-79
2020/12/05 02:49:46;;;;;;;39.03;12.73;;;;;;;1.79;75.63;99242.16;4900004;29;20044;-79
2020/12/05 02:52:13;;;;;;;34.08;11.55;;;;;;;1.75;75.32;99237.06;4884549;29;20059;-79
2020/12/05 02:54:40;;;;;;;36.30;12.45;;;;;;;1.77;75.52;99225.69;4883703;29;20045;-79
2020/12/05 02:57:06;;;;;;;39.72;12.50;;;;;;;1.77;75.38;99220.47;4891855;29;20108;-79
2020/12/05 02:59:33;;;;;;;37.05;12.52;;;;;;;1.79;75.47;99226.50;4880229;29;20041;-80
2020/12/05 03:01:59;;;;;;;31.98;12.13;;;;;;;1.81;75.75;99224.66;4891375;29;20044;-80
2020/12/05 03:04:25;;;;;;;32.28;12.38;;;;;;;1.82;75.54;99221.16;4884076;29;20104;-80
2020/12/05 03:06:51;;;;;;;35.72;12.82;;;;;;;1.86;75.71;99227.97;4883773;29;20059;-80
2020/12/05 03:09:18;;;;;;;27.98;12.18;;;;;;;1.88;75.99;99231.38;4883805;29;20100;-80
2020/12/05 03:11:44;;;;;;;26.50;10.40;;;;;;;1.93;75.94;99232.09;4900597;29;20049;-80
2020/12/05 03:14:10;;;;;;;38.38;13.07;;;;;;;1.98;76.00;99232.78;4899646;29;20045;-80
2020/12/05 03:16:36;;;;;;;33.38;12.25;;;;;;;2.02;75.82;99233.53;4899792;29;20051;-79
2020/12/05 03:19:02;;;;;;;28.98;11.90;;;;;;;2.04;75.67;99232.56;4899705;29;20045;-80
2020/12/05 03:21:28;;;;;;;25.10;10.80;;;;;;;2.06;75.79;99230.72;4898605;29;20051;-79
2020/12/05 03:23:55;;;;;;;24.08;10.35;;;;;;;2.11;75.94;99239.25;4892570;29;20052;-80
2020/12/05 03:26:20;;;;;;;23.60;10.32;;;;;;;2.16;75.91;99235.63;4880520;29;20409;-79
2020/12/05 03:28:47;;;;;;;24.73;10.82;;;;;;;2.21;76.05;99233.69;4901020;29;20071;-79
2020/12/05 03:34:06;;;;;;;25.23;10.90;;;;;;;2.24;75.69;99244.03;4872093;29;20501;-79
2020/12/05 03:36:32;;;;;;;32.03;12.40;;;;;;;2.23;75.74;99247.56;4896504;29;20063;-77
2020/12/05 03:38:58;;;;;;;36.20;12.48;;;;;;;2.21;75.32;99249.38;4898013;29;20052;-77
2020/12/05 03:41:24;;;;;;;25.52;10.45;;;;;;;2.16;75.30;99246.06;4911475;29;20025;-79
2020/12/05 03:43:51;;;;;;;29.67;11.52;;;;;;;2.10;75.03;99242.75;4902828;29;20049;-78
2020/12/05 03:46:17;;;;;;;28.65;11.48;;;;;;;2.06;75.32;99251.63;4896429;29;20040;-78
2020/12/05 03:48:43;;;;;;;34.70;12.68;;;;;;;2.00;75.10;99251.84;4898422;29;20527;-78
2020/12/05 03:51:10;;;;;;;25.58;10.88;;;;;;;1.94;75.04;99260.75;4898388;29;20036;-78
2020/12/05 03:53:36;;;;;;;30.25;12.73;;;;;;;1.88;74.92;99263.56;4898014;29;20073;-78
2020/12/05 03:56:02;;;;;;;30.83;12.05;;;;;;;1.80;74.74;99262.13;4880873;29;20049;-78
2020/12/05 03:58:27;;;;;;;34.67;12.43;;;;;;;1.72;74.55;99268.47;4878148;29;20145;-78
2020/12/05 04:00:53;;;;;;;33.83;12.82;;;;;;;1.62;74.67;99267.09;4878682;29;20111;-79
2020/12/05 04:03:19;;;;;;;36.20;12.85;;;;;;;1.55;74.91;99273.41;4882031;29;20127;-78
2020/12/05 04:05:45;;;;;;;33.63;13.52;;;;;;;1.50;75.47;99275.31;4896294;29;20416;-80
2020/12/05 04:08:11;;;;;;;42.55;13.10;;;;;;;1.45;75.18;99279.81;4897851;29;20370;-78
2020/12/05 04:10:37;;;;;;;38.13;13.88;;;;;;;1.43;75.35;99276.41;4897750;29;20045;-79
2020/12/05 04:13:03;;;;;;;31.60;13.05;;;;;;;1.42;75.64;99277.34;4898020;29;20037;-79
2020/12/05 04:15:29;;;;;;;38.08;13.40;;;;;;;1.41;75.64;99279.06;4901502;29;20496;-79
2020/12/05 04:17:55;;;;;;;42.03;13.75;;;;;;;1.39;75.13;99287.84;4898307;29;20051;-79
2020/12/05 04:20:22;;;;;;;38.97;13.50;;;;;;;1.36;75.62;99281.84;4898004;29;20068;-79
2020/12/05 04:22:48;;;;;;;44.42;13.52;;;;;;;1.35;75.10;99281.88;4897141;29;20063;-79
2020/12/05 04:25:14;;;;;;;36.83;14.02;;;;;;;1.34;75.34;99288.03;4895327;29;20052;-79
2020/12/05 04:27:40;;;;;;;37.22;14.10;;;;;;;1.32;75.60;99289.84;4893081;29;20289;-80
2020/12/05 04:30:06;;;;;;;38.10;14.52;;;;;;;1.32;75.67;99290.69;4887577;29;20036;-79
2020/12/05 04:32:32;;;;;;;37.60;13.60;;;;;;;1.32;75.21;99293.28;4897098;29;20420;-79
2020/12/05 04:34:59;;;;;;;30.38;13.63;;;;;;;1.31;75.58;99293.31;4897469;29;20044;-80
2020/12/05 04:37:26;;;;;;;32.78;13.20;;;;;;;1.30;75.61;99297.69;4899166;29;20056;-79
2020/12/05 04:39:53;;;;;;;29.83;13.85;;;;;;;1.33;75.76;99300.19;4885345;29;20056;-79
2020/12/05 04:42:19;;;;;;;28.75;12.68;;;;;;;1.34;75.60;99304.50;4883850;29;20045;-79
2020/12/05 04:44:46;;;;;;;29.08;12.68;;;;;;;1.34;75.57;99299.31;4893611;29;20052;-79
2020/12/05 04:47:15;;;;;;;29.63;12.40;;;;;;;1.34;75.03;99309.72;4898461;29;20047;-79
2020/12/05 04:49:41;;;;;;;31.33;12.10;;;;;;;1.30;75.08;99307.25;4897454;29;20063;-79
2020/12/05 04:52:21;;;;;;;23.98;11.52;;;;;;;1.24;75.02;99307.47;4898722;29;20048;-79
2020/12/05 04:54:52;;;;;;;25.27;11.27;;;;;;;1.21;74.83;99308.41;4898754;29;20496;-79
2020/12/05 04:57:26;;;;;;;28.63;11.48;;;;;;;1.16;74.83;99305.09;4896668;29;20104;-80
2020/12/05 04:59:54;;;;;;;40.20;14.00;;;;;;;1.10;74.46;99320.94;4895084;29;20053;-80
2020/12/05 05:02:28;;;;;;;38.42;13.25;;;;;;;1.00;74.21;99329.91;4886288;29;20057;-80
2020/12/05 05:04:55;;;;;;;34.58;13.02;;;;;;;0.88;74.21;99318.97;4897808;29;20135;-80
2020/12/05 05:07:22;;;;;;;36.08;12.50;;;;;;;0.81;74.37;99320.06;4897867;29;20055;-80
2020/12/05 05:10:03;;;;;;;31.60;12.07;;;;;;;0.75;74.36;99325.44;4883448;29;20118;-80
2020/12/05 05:12:35;;;;;;;34.55;12.18;;;;;;;0.70;74.57;99327.34;4910284;29;20047;-79
2020/12/05 05:15:01;;;;;;;31.75;11.32;;;;;;;0.68;74.73;99326.53;4882493;29;20052;-80
2020/12/05 05:17:27;;;;;;;37.15;13.27;;;;;;;0.69;74.88;99336.06;4892094;29;20096;-80
2020/12/05 05:19:53;;;;;;;33.05;12.38;;;;;;;0.67;74.60;99335.25;4880761;29;20148;-80
2020/12/05 05:22:21;;;;;;;32.78;11.88;;;;;;;0.65;75.16;99332.69;4893137;29;20490;-79
2020/12/05 05:25:04;;;;;;;32.50;12.95;;;;;;;0.68;75.05;99334.34;4889939;29;20036;-80
2020/12/05 05:27:30;;;;;;;40.50;13.18;;;;;;;0.66;74.62;99330.91;4877802;29;20065;-80
2020/12/05 05:30:08;;;;;;;34.00;13.40;;;;;;;0.61;74.44;99338.03;4889944;29;20040;-80
2020/12/05 05:32:42;;;;;;;37.08;14.25;;;;;;;0.57;74.85;99332.91;4886885;29;20052;-79
2020/12/05 05:35:14;;;;;;;49.47;15.80;;;;;;;0.56;74.96;99331.19;4906300;29;20048;-79
2020/12/05 05:37:42;;;;;;;38.22;14.07;;;;;;;0.56;74.91;99331.19;4870463;29;20049;-79
2020/12/05 05:40:10;;;;;;;43.38;14.20;;;;;;;0.57;75.00;99332.91;4910445;29;20052;-79
2020/12/05 05:42:41;;;;;;;42.60;15.25;;;;;;;0.53;74.67;99341.72;4896676;29;20041;-80
2020/12/05 05:45:24;;;;;;;33.83;13.95;;;;;;;0.53;75.18;99346.06;4896544;29;20532;-79
2020/12/05 05:48:02;;;;;;;35.58;12.63;;;;;;;0.60;75.66;99351.94;4886732;29;20040;-79
2020/12/05 05:50:33;;;;;;;44.63;16.70;;;;;;;0.70;75.92;99363.84;4886197;29;20053;-79
2020/12/05 05:53:02;;;;;;;41.70;16.90;;;;;;;0.75;75.89;99361.94;4900209;29;20053;-78
2020/12/05 05:55:41;;;;;;;50.88;17.70;;;;;;;0.79;75.76;99363.53;4896672;29;20049;-79
2020/12/05 05:58:09;;;;;;;35.80;13.88;;;;;;;0.81;75.43;99366.97;4897088;29;20052;-79
2020/12/05 06:00:39;;;;;;;44.63;15.52;;;;;;;0.82;75.47;99363.47;4882197;29;20806;-78
2020/12/05 06:03:18;;;;;;;33.97;14.00;;;;;;;0.84;75.48;99356.44;4876864;29;20072;-78
2020/12/05 06:05:46;;;;;;;34.17;14.10;;;;;;;0.84;75.11;99361.66;4865129;29;20068;-78
2020/12/05 06:08:16;;;;;;;51.78;16.55;;;;;;;0.83;74.84;99362.56;4892139;29;20053;-78
2020/12/05 06:10:47;;;;;;;40.33;14.43;;;;;;;0.76;74.38;99364.50;4891850;29;20135;-77
2020/12/05 06:13:18;;;;;;;36.42;14.57;;;;;;;0.68;74.63;99360.38;4881132;29;20675;-78
2020/12/05 06:15:46;;;;;;;44.42;16.23;;;;;;;0.64;75.00;99377.00;4864776;29;20482;-78
2020/12/05 06:18:13;;;;;;;44.53;15.68;;;;;;;0.82;77.43;99386.91;4894262;29;20045;-79
2020/12/05 06:20:43;;;;;;;44.72;18.40;;;;;;;0.99;78.13;99380.38;4893230;29;20049;-79
2020/12/05 06:23:31;;;;;;;56.38;18.98;;;;;;;1.09;77.73;99387.88;4899794;29;20041;-79
2020/12/05 06:25:59;;;;;;;44.30;17.73;;;;;;;1.16;77.43;99394.59;4884171;29;20105;-79
2020/12/05 06:28:26;;;;;;;50.45;17.35;;;;;;;1.25;77.47;99388.25;4871761;29;20052;-79
2020/12/05 06:30:52;;;;;;;48.35;17.13;;;;;;;1.33;77.36;99391.47;4882627;29;20765;-78
2020/12/05 06:33:37;;;;;;;49.47;18.58;;;;;;;1.41;76.82;99399.06;4882296;29;20057;-78
2020/12/05 06:36:26;;;;;;;43.53;17.45;;;;;;;1.48;76.89;99415.38;4899333;29;20057;-78
2020/12/05 06:39:05;;;;;;;49.83;18.77;;;;;;;1.53;76.74;99408.28;4912348;23;20071;-78
2020/12/05 06:41:32;;;;;;;45.95;18.05;;;;;;;1.60;76.75;99415.03;4902521;29;20044;-78
2020/12/05 06:44:13;;;;;;;48.10;17.67;;;;;;;1.68;76.78;99413.00;4919495;29;20044;-79
2020/12/05 06:47:06;;;;;;;48.15;19.67;;;;;;;1.77;76.89;99416.22;4901653;29;20048;-78
2020/12/05 06:49:38;;;;;;;52.80;18.83;;;;;;;1.84;76.67;99412.50;4915446;29;20056;-79
2020/12/05 06:52:26;;;;;;;46.42;17.65;;;;;;;1.91;76.59;99419.25;4901984;29;20054;-78
2020/12/05 06:55:08;;;;;;;51.63;18.27;;;;;;;1.99;76.24;99432.91;4902084;29;20076;-79
2020/12/05 06:57:35;;;;;;;48.90;17.00;;;;;;;2.02;76.28;99432.81;4901392;29;20047;-79
2020/12/05 07:00:13;;;;;;;43.08;16.17;;;;;;;2.07;75.91;99432.66;4901951;29;20500;-79
2020/12/05 07:02:40;;;;;;;58.78;19.75;;;;;;;2.07;75.71;99450.94;4886237;29;20467;-80
2020/12/05 07:05:18;;;;;;;44.95;18.42;;;;;;;2.03;75.34;99447.56;4902006;29;20048;-79
2020/12/05 07:07:58;;;;;;;55.00;20.08;;;;;;;1.98;75.05;99452.09;4902047;29;20060;-79
2020/12/05 07:10:45;;;;;;;53.97;19.17;;;;;;;1.91;74.84;99461.03;4886199;29;20051;-79
2020/12/05 07:13:22;;;;;;;43.40;17.52;;;;;;;1.85;75.11;99461.22;4905031;29;20048;-79
2020/12/05 07:15:49;;;;;;;39.25;17.10;;;;;;;1.85;75.48;99466.44;4901210;29;20067;-79
2020/12/05 07:18:26;;;;;;;49.70;18.20;;;;;;;1.89;75.88;99474.13;4902277;29;20051;-79
2020/12/05 07:20:55;;;;;;;44.63;17.77;;;;;;;1.94;75.89;99476.56;4885275;29;20083;-80
2020/12/05 07:23:22;;;;;;;48.88;18.23;;;;;;;2.01;75.87;99480.69;4888135;29;20044;-79
2020/12/05 07:25:49;;;;;;;39.17;16.13;;;;;;;2.07;76.08;99483.13;4900403;29;20143;-79
2020/12/05 07:28:17;;;;;;;38.75;15.23;;;;;;;2.16;76.27;99489.81;4911191;29;20080;-78
2020/12/05 07:30:43;;;;;;;41.90;16.70;;;;;;;2.22;75.78;99491.34;4899046;29;20037;-78
2020/12/05 07:33:11;;;;;;;51.67;16.63;;;;;;;2.27;75.85;99499.91;4902543;29;20048;-79
2020/12/05 07:35:37;;;;;;;44.85;16.27;;;;;;;2.31;76.06;99496.28;4873631;29;20460;-79
2020/12/05 07:38:15;;;;;;;37.72;15.27;;;;;;;2.37;76.18;99498.69;4913952;29;20052;-79
2020/12/05 07:40:42;;;;;;;61.40;16.42;;;;;;;2.44;76.23;99513.25;4891338;29;20039;-78
2020/12/05 07:43:16;;;;;;;47.22;15.65;;;;;;;2.53;76.34;99523.41;4886126;29;20052;-79
2020/12/05 07:45:42;;;;;;;40.97;16.15;;;;;;;2.62;76.28;99527.50;4898850;29;20052;-78
2020/12/05 07:48:14;;;;;;;42.70;17.33;;;;;;;2.72;76.09;99538.47;4918834;29;20099;-78
2020/12/05 07:50:40;;;;;;;36.63;15.18;;;;;;;2.80;76.03;99540.84;4897966;29;20045;-79
2020/12/05 07:53:30;;;;;;;44.10;17.52;;;;;;;2.87;75.93;99547.56;4901650;29;20595;-79
2020/12/05 07:55:58;;;;;;;43.28;16.10;;;;;;;2.92;75.55;99549.13;4901939;29;20420;-79
2020/12/05 07:58:24;;;;;;;51.13;17.02;;;;;;;2.98;75.52;99555.03;4908142;29;20048;-79
2020/12/05 08:00:54;;;;;;;38.20;18.00;;;;;;;3.05;75.70;99551.28;4913862;29;20580;-79
2020/12/05 08:03:38;;;;;;;55.58;20.05;;;;;;;3.12;75.41;99558.00;4901382;29;20059;-79
2020/12/05 08:06:30;;;;;;;43.60;18.17;;;;;;;3.18;75.16;99556.94;4900391;29;20055;-79
2020/12/05 08:09:04;;;;;;;48.38;19.40;;;;;;;3.23;75.16;99566.34;4918687;29;20389;-79
2020/12/05 08:11:39;;;;;;;48.60;20.58;;;;;;;3.27;75.17;99570.53;4917678;29;20119;-79
2020/12/05 08:14:06;;;;;;;55.72;20.67;;;;;;;3.33;75.18;99572.09;4902006;29;20059;-78
2020/12/05 08:16:38;;;;;;;69.03;21.77;;;;;;;3.39;75.04;99573.63;4900430;29;20063;-79
2020/12/05 08:19:04;;;;;;;55.38;21.30;;;;;;;3.45;75.10;99576.91;4884548;29;20107;-79
2020/12/05 08:21:30;;;;;;;53.13;20.33;;;;;;;3.53;75.14;99574.00;4899350;29;20040;-79
2020/12/05 08:24:06;;;;;;;46.17;19.55;;;;;;;3.64;75.19;99569.22;4884703;29;20063;-79
2020/12/05 08:26:33;;;;;;;76.55;24.88;;;;;;;3.72;75.30;99565.47;4916529;29;20123;-79
2020/12/05 08:29:00;;;;;;;66.50;21.73;;;;;;;3.77;74.74;99571.38;4884437;29;20055;-79
2020/12/05 08:31:26;;;;;;;39.42;18.33;;;;;;;3.83;75.25;99571.16;4919456;29;20495;-79
2020/12/05 08:33:52;;;;;;;40.92;18.13;;;;;;;3.92;75.37;99585.66;4909592;29;20119;-79
2020/12/05 08:36:31;;;;;;;47.50;18.02;;;;;;;4.03;75.41;99581.72;4911265;29;20044;-79
2020/12/05 08:39:04;;;;;;;43.38;20.40;;;;;;;4.21;75.52;99592.41;4874463;29;20078;-79
2020/12/05 08:41:40;;;;;;;35.33;16.52;;;;;;;4.43;75.57;99598.50;4888880;29;20052;-79
2020/12/05 08:44:11;;;;;;;41.08;17.77;;;;;;;5.23;75.30;99589.94;4894007;29;20067;-80
2020/12/05 08:46:37;;;;;;;31.95;16.48;;;;;;;5.88;74.48;99592.31;4900334;29;20138;-79
2020/12/05 08:49:16;;;;;;;28.90;14.10;;;;;;;6.09;73.22;99594.94;4914662;29;20036;-80
2020/12/05 08:51:45;;;;;;;29.30;14.40;;;;;;;5.89;73.17;99596.66;4896145;29;20056;-80
2020/12/05 08:54:12;;;;;;;25.00;12.57;;;;;;;5.74;72.67;99599.97;4886630;29;20059;-79
2020/12/05 08:56:38;;;;;;;26.75;13.63;;;;;;;5.63;73.09;99603.06;4898396;29;20049;-79
2020/12/05 08:59:04;;;;;;;29.25;13.60;;;;;;;5.54;73.16;99614.84;4882746;29;20048;-80
2020/12/05 09:01:42;;;;;;;30.35;12.65;;;;;;;5.42;73.00;99620.63;4897921;29;20051;-79
2020/12/05 09:04:25;;;;;;;21.15;10.77;;;;;;;5.29;73.22;99627.34;4903361;29;20056;-80
2020/12/05 09:06:51;;;;;;;22.67;11.50;;;;;;;5.16;73.00;99625.25;4895444;29;20060;-79
2020/12/05 09:09:28;;;;;;;17.75;10.88;;;;;;;5.08;73.52;99637.81;4902303;29;20064;-80
2020/12/05 09:12:02;;;;;;;23.15;11.85;;;;;;;5.05;73.83;99645.84;4902555;29;20048;-80
2020/12/05 09:14:28;;;;;;;19.63;10.13;;;;;;;5.04;74.27;99647.59;4896247;29;20044;-80
2020/12/05 09:16:55;;;;;;;22.33;11.02;;;;;;;5.05;74.63;99654.56;4902648;29;20055;-80
2020/12/05 09:19:23;;;;;;;22.02;11.07;;;;;;;5.18;74.83;99654.91;4873867;29;20052;-80
2020/12/05 09:21:50;;;;;;;19.15;10.65;;;;;;;5.42;74.51;99646.88;4902255;29;20041;-80
2020/12/05 09:24:16;;;;;;;16.48;8.80;;;;;;;5.88;74.61;99655.38;4912436;29;20052;-79
2020/12/05 09:26:58;;;;;;;13.00;8.55;;;;;;;6.76;73.72;99654.84;4899744;29;20058;-80
2020/12/05 09:29:25;;;;;;;10.63;7.20;;;;;;;7.54;73.17;99647.41;4897086;29;20047;-79
2020/12/05 09:31:53;;;;;;;9.27;7.00;;;;;;;8.17;71.85;99651.13;4902234;29;20036;-80
2020/12/05 09:34:32;;;;;;;8.93;6.65;;;;;;;8.74;70.41;99646.25;4911122;29;20051;-80
2020/12/05 09:37:00;;;;;;;8.43;6.10;;;;;;;9.22;69.40;99650.56;4906578;29;20148;-80
2020/12/05 09:39:26;;;;;;;8.32;5.93;;;;;;;9.55;68.66;99647.72;4905642;29;20060;-80
2020/12/05 09:41:52;;;;;;;6.57;5.30;;;;;;;9.87;68.18;99651.03;4910277;29;20040;-80
2020/12/05 09:44:18;;;;;;;7.18;5.20;;;;;;;10.17;67.76;99660.69;4923651;29;20063;-80
2020/12/05 09:46:44;;;;;;;6.53;4.85;;;;;;;10.48;67.13;99669.34;4902913;29;20062;-80
2020/12/05 09:49:10;;;;;;;7.05;4.95;;;;;;;10.75;66.52;99665.88;4875084;29;20044;-80
2020/12/05 09:51:36;;;;;;;6.78;4.40;;;;;;;11.00;66.42;99666.00;4893323;29;20386;-80
2020/12/05 09:54:02;;;;;;;6.03;4.13;;;;;;;11.26;66.58;99666.03;4907399;29;20143;-80
2020/12/05 09:56:28;;;;;;;6.60;4.00;;;;;;;11.53;66.47;99657.19;4888726;29;20100;-80
2020/12/05 09:58:54;;;;;;;5.43;4.10;;;;;;;11.77;66.04;99660.81;4904778;29;20123;-81
2020/12/05 10:01:20;;;;;;;4.88;3.35;;;;;;;11.99;65.30;99669.97;4885404;29;20108;-81
2020/12/05 10:03:47;;;;;;;4.10;3.60;;;;;;;12.20;64.96;99657.81;4910043;29;20077;-80
2020/12/05 10:06:13;;;;;;;5.80;3.80;;;;;;;12.39;65.02;99656.53;4900082;29;20112;-80
2020/12/05 10:08:39;;;;;;;4.63;3.50;;;;;;;12.58;64.97;99659.56;4886531;29;20075;-81
2020/12/05 10:11:05;;;;;;;5.97;3.67;;;;;;;12.85;65.02;99655.84;4916878;29;20036;-80
2020/12/05 10:13:31;;;;;;;4.13;3.60;;;;;;;13.04;64.66;99648.19;4886700;29;20496;-81
2020/12/05 10:15:57;;;;;;;4.20;3.60;;;;;;;13.17;63.56;99647.28;4870207;29;20436;-80
2020/12/05 10:18:23;;;;;;;4.00;3.55;;;;;;;13.25;63.42;99655.53;4901895;29;20040;-81
2020/12/05 10:20:49;;;;;;;3.88;3.05;;;;;;;13.32;63.00;99655.97;4898994;29;20048;-80
2020/12/05 10:23:15;;;;;;;3.65;2.70;;;;;;;13.38;62.90;99666.97;4897859;29;20072;-80
2020/12/05 10:25:41;;;;;;;5.15;3.30;;;;;;;13.41;62.61;99661.44;4911616;29;20139;-81
2020/12/05 10:28:07;;;;;;;4.72;3.20;;;;;;;13.43;62.16;99664.81;4899516;29;20048;-80
2020/12/05 10:30:33;;;;;;;3.80;3.20;;;;;;;13.47;62.50;99656.59;4897941;29;20075;-80
2020/12/05 10:32:59;;;;;;;5.20;3.22;;;;;;;13.54;62.82;99655.16;4891076;29;20413;-81
2020/12/05 10:35:25;;;;;;;5.18;3.00;;;;;;;13.67;63.29;99663.88;4883760;29;20044;-81
2020/12/05 10:37:51;;;;;;;3.97;3.00;;;;;;;13.82;63.51;99665.38;4904573;29;20072;-81
2020/12/05 10:40:17;;;;;;;4.72;3.20;;;;;;;13.97;63.32;99667.81;4888377;29;20489;-81
2020/12/05 10:42:43;;;;;;;4.75;3.08;;;;;;;14.12;63.61;99653.28;4885161;29;21021;-81
2020/12/05 10:45:09;;;;;;;5.85;3.13;;;;;;;14.16;62.29;99646.75;4902972;29;20071;-81
2020/12/05 10:47:35;;;;;;;5.32;3.22;;;;;;;14.15;62.54;99650.38;4918096;29;20044;-81
2020/12/05 10:50:01;;;;;;;5.03;3.15;;;;;;;14.21;62.24;99665.88;4912855;29;20072;-81
2020/12/05 10:52:27;;;;;;;4.57;2.90;;;;;;;14.18;61.92;99687.44;4920793;29;20130;-80
2020/12/05 10:54:53;;;;;;;3.40;2.90;;;;;;;14.14;62.38;99696.59;4932352;29;20084;-81
2020/12/05 10:57:19;;;;;;;4.55;3.13;;;;;;;14.25;61.71;99697.59;4921510;29;20136;-81
2020/12/05 10:59:45;;;;;;;4.28;2.90;;;;;;;14.39;61.29;99705.31;4888510;29;20052;-80
2020/12/05 11:02:11;;;;;;;4.38;3.10;;;;;;;14.48;61.68;99699.28;4903373;29;20064;-81
2020/12/05 11:04:37;;;;;;;4.78;3.60;;;;;;;14.43;61.29;99706.81;4884440;29;20100;-80
2020/12/05 11:07:03;;;;;;;5.40;2.92;;;;;;;14.48;61.58;99699.28;4897294;29;20048;-81
2020/12/05 11:09:29;;;;;;;4.20;2.97;;;;;;;14.52;61.60;99700.75;4891189;29;20064;-81
2020/12/05 11:11:55;;;;;;;4.30;2.90;;;;;;;14.53;60.78;99702.41;4906495;29;20040;-80
2020/12/05 11:14:21;;;;;;;4.93;3.22;;;;;;;14.38;60.20;99698.31;4905050;29;20040;-80
2020/12/05 11:16:49;;;;;;;5.97;3.28;;;;;;;14.28;60.05;99708.00;4885792;29;20093;-81
2020/12/05 11:19:15;;;;;;;5.32;3.47;;;;;;;14.23;60.41;99718.19;4900762;29;20053;-81
2020/12/05 11:21:45;;;;;;;5.32;3.08;;;;;;;14.18;60.35;99724.72;4887058;29;20051;-81
2020/12/05 11:24:11;;;;;;;4.28;3.22;;;;;;;13.75;60.90;99738.69;4894224;29;20048;-81
2020/12/05 11:26:37;;;;;;;4.28;3.28;;;;;;;12.94;61.03;99742.88;4898984;29;20056;-81
2020/12/05 11:29:04;;;;;;;6.05;3.03;;;;;;;12.85;61.45;99739.06;4905354;29;20103;-81
2020/12/05 11:31:31;;;;;;;5.18;3.00;;;;;;;12.82;62.35;99743.75;4903993;29;20055;-81
2020/12/05 11:33:57;;;;;;;5.95;3.40;;;;;;;13.07;62.78;99741.97;4894787;29;20055;-81
2020/12/05 11:36:23;;;;;;;4.60;3.00;;;;;;;13.30;63.18;99742.91;4906034;29;20036;-81
2020/12/05 11:38:49;;;;;;;4.95;3.20;;;;;;;13.35;63.04;99731.00;4904085;29;20583;-81